EDT,Max TemperatureF,Mean TemperatureF,Min TemperatureF,Max Dew PointF,MeanDew PointF,Min DewpointF,Max Humidity, Mean Humidity, Min Humidity, Max Sea Level PressureIn, Mean Sea Level PressureIn, Min Sea Level PressureIn, Max VisibilityMiles, Mean VisibilityMiles, Min VisibilityMiles, Max Wind SpeedMPH, Mean Wind SpeedMPH, Max Gust SpeedMPH,PrecipitationIn, CloudCover, Events, WindDirDegrees
2013-7-1,81,76,70,72,70,67,93,86,69,30.01,29.93,29.85,10,8,0,8,2,,1.13,7,Fog-Rain-Thunderstorm,141
2013-7-2,75,74,73,72,71,69,94,90,84,30.21,30.13,30.01,10,9,2,7,3,,0.25,8,Rain,134
2013-7-3,84,78,73,74,72,71,94,86,67,30.26,30.22,30.16,10,9,2,10,4,,0.11,6,Rain-Thunderstorm,130
2013-7-4,87,80,73,72,71,66,93,79,53,30.30,30.25,30.18,10,10,8,8,4,,0.00,5,Thunderstorm,143
2013-7-5,89,80,73,73,71,69,94,78,55,30.30,30.25,30.17,10,10,7,7,3,,0.01,4,,155
2013-7-6,88,78,73,72,71,68,93,79,61,30.28,30.23,30.13,10,10,6,9,1,,0.00,5,,186
2013-7-7,88,78,70,74,70,67,91,79,59,30.21,30.16,30.07,10,10,8,13,2,16,0.02,4,Rain-Thunderstorm,263
2013-7-8,89,79,72,73,71,68,93,81,58,30.20,30.16,30.10,10,10,5,6,1,,0.02,5,Rain-Thunderstorm,239
2013-7-9,88,80,72,74,72,68,91,82,65,30.18,30.14,30.07,10,9,5,5,1,,0.05,5,Rain-Thunderstorm,144
2013-7-10,88,78,71,74,71,68,93,82,61,30.12,30.05,29.96,10,8,1,12,3,22,0.62,6,Rain-Thunderstorm,250
2013-7-11,79,76,73,73,72,70,94,89,79,30.00,29.95,29.89,10,6,0,10,2,,0.83,7,Fog-Rain-Thunderstorm,171
2013-7-12,75,72,70,70,68,67,94,87,79,30.05,29.96,29.88,10,8,2,8,3,,0.04,8,Rain,7
2013-7-13,79,74,70,73,70,67,94,89,84,30.19,30.12,30.03,10,8,2,8,5,,0.17,8,Rain,49
2013-7-14,88,79,71,74,71,68,93,84,53,30.33,30.27,30.20,10,8,0,8,4,,0.39,6,Rain-Thunderstorm,83
2013-7-15,90,78,69,72,69,66,97,84,48,30.35,30.31,30.26,10,5,0,6,1,,0.00,2,Fog,51
2013-7-16,91,80,70,76,71,68,93,74,50,30.29,30.24,30.19,10,10,6,10,2,,0.00,1,Rain-Thunderstorm,267
2013-7-17,93,83,75,75,73,70,90,72,50,30.23,30.18,30.12,10,9,5,7,2,,0.01,2,Rain,28
2013-7-18,93,83,73,75,73,70,91,75,50,30.14,30.11,30.04,9,7,4,6,2,,0.00,1,Thunderstorm,353
2013-7-19,91,82,73,74,72,71,91,76,57,30.11,30.06,29.99,10,8,2,6,2,,0.00,1,,280
2013-7-20,89,81,75,74,72,70,88,77,61,30.05,30.00,29.93,10,10,10,6,4,,0.00,4,,-1
2013-7-21,87,80,73,75,71,70,93,79,61,30.01,29.97,29.92,10,10,8,6,3,,0.01,5,Rain,255
2013-7-22,87,78,71,73,71,69,93,80,61,29.97,29.92,29.83,10,8,5,6,1,,0.00,3,,230
2013-7-23,89,80,73,72,70,68,90,76,51,29.84,29.80,29.73,10,9,6,8,4,,0.00,3,Rain,264
2013-7-24,91,81,71,74,69,66,87,69,45,29.85,29.78,29.74,10,10,7,7,2,,0.00,1,,291
2013-7-25,81,74,68,70,66,63,91,78,64,30.05,29.94,29.83,10,9,2,13,5,17,0.43,6,Rain-Thunderstorm,359
2013-7-26,84,72,62,66,62,59,93,71,48,30.11,30.07,30.03,10,10,9,7,2,,0.00,2,,60
2013-7-27,84,75,66,69,67,64,93,84,53,30.07,30.01,29.94,10,8,2,10,2,30,0.34,4,Rain-Thunderstorm,217
2013-7-28,86,76,68,71,68,66,93,84,53,30.03,29.97,29.93,10,7,0,8,1,,0.06,4,Fog-Rain-Thunderstorm,266
2013-7-29,84,75,66,69,66,61,97,79,46,30.16,30.07,30.00,10,7,0,8,2,,0.15,3,Fog-Rain-Thunderstorm,311
2013-7-30,87,74,63,69,62,56,90,68,44,30.23,30.18,30.15,10,10,10,7,1,,0.00,0,,346
2013-7-31,82,76,70,71,69,67,93,80,60,30.15,30.08,30.01,10,8,2,8,1,22,0.24,5,Rain-Thunderstorm,132